METAR EFET 250050Z AUTO 12007KT 100V160 9999 FEW036 05/04 Q0993=
METAR EFHA 250050Z AUTO 21003KT 160V240 9999 RA OVC006 07/06 Q0993=
METAR EFHK 250050Z 26003KT 9999 -RA SCT005 08/08 Q0994 NOSIG=
METAR EFIV 250050Z AUTO 12003KT 9999 OVC011 06/05 Q0997=
METAR EFJO 250050Z AUTO 14006KT 9999 FEW010 OVC026 07/05 Q0997=
METAR EFJY 250050Z AUTO 14006KT 9999 RA OVC005 06/06 Q0994=
METAR EFKE 250050Z AUTO 16007KT 120V180 9999 -RA BKN008 07/07 Q0993=
METAR EFKI 250050Z AUTO 13007KT 9999 FEW015 BKN045 06/04 Q0995=
METAR EFKK 250050Z AUTO 14007KT 9999 -RA OVC006 07/06 Q0992=
METAR EFKS 250050Z AUTO 12008KT 9999 BKN008 OVC035 06/05 Q0997=
METAR EFKT 250050Z AUTO 13007KT 9999 SCT006 OVC034 06/05 Q0994=
METAR EFKU 250050Z AUTO 14007KT 9999 OVC030 07/05 Q0996=
METAR EFLA 250050Z AUTO VRB02KT 8000 -RA OVC002/// 07/07 Q0994 RERA=
METAR EFLP 250050Z AUTO 13006KT 090V170 9999 RA OVC003 07/06 Q0995=
METAR EFMA 250050Z AUTO 27004KT 220V310 9999 OVC009 10/08 Q0994=
METAR EFMI 250050Z AUTO 11006KT 9999 RA OVC005 07/07 Q0995=
METAR EFOU 250050Z AUTO 14009KT 9999 -RA SCT007 SCT031 07/06 Q0994=
METAR EFPO 250050Z AUTO VRB02KT 9999 OVC029 08/07 Q0993=
METAR EFRO 250050Z AUTO 11009KT 9999 FEW006 06/05 Q0994=
METAR EFSA 250050Z AUTO 13007KT 9999 FEW008 BKN037 07/05 Q0996=
METAR EFSI 250050Z AUTO 16005KT 9999 OVC004 07/06 Q0992=
METAR EFTP 250050Z AUTO 17005KT 9999 -SHRA OVC003 07/07 Q0993=
METAR EFTU 250050Z AUTO 25003KT 9999 FEW033 08/07 Q0994=
METAR EFUT 250050Z AUTO 12004KT 9999 RA OVC002 07/07 Q0994=
METAR EFVA 250050Z AUTO 17005KT 9999 OVC003 07/07 Q0992=
ILHF 250040Z AUTO 26003KT 9999 -DZ OVC006 08/08 Q0994=
ILIK 250040Z AUTO 21003KT 9999 OVC002 07/07 Q0993=
ILJY 250040Z AUTO 13004KT //// // ////// 06/06 Q0994=
ILKA 250040Z AUTO 16006KT 9999 DZ OVC005 07/06 Q0992=
ILKM 250040Z AUTO 12004KT 9999 FEW007 SCT015 BKN055 06/06 Q0996=
ILMI 250040Z AUTO 13005KT 8000 RA OVC004 07/07 Q0995=
ILPR 250040Z AUTO 15003KT 2900 RA OVC006 08/08 Q0994=
ILPU 250040Z AUTO 12007KT 9999 SCT035 BKN040 07/05 Q0995=
ILQA 250040Z AUTO 12007KT 9999 OVC008 07/05 Q0997=
ILQB 250040Z AUTO 09006KT 9999 BKN010 BKN043 BKN063 06/05 Q0997=
ILQC 250040Z AUTO 12008KT 9999 -SHRA OVC013 06/05 Q0993=
ILQD 250040Z AUTO /////KT 9999 BKN014 OVC054 06/05 Q////=
ILQE 250040Z AUTO 14007KT 9999 -RA SCT013 BKN017 BKN020 07/06 Q0993=
ILQF 250040Z AUTO 13007KT 9999 -RA BKN017 08/06 Q0993=
ILQH 250040Z AUTO 14010KT 9999 -RA FEW010 BKN024 OVC028 07/06 Q0993=
ILQI 250040Z AUTO 13008G18KT //// // OVC003 05/05 Q0993=
ILQJ 250040Z AUTO 15017KT 9999 -RA FEW009 BKN031 OVC044 08/07 Q0993=
ILQK 250040Z AUTO 13018KT 0100 SN ////// 04/03 Q0992=
ILQL 250040Z AUTO 15008KT 9999 -RA ////// 08/06 Q0994=
ILQM 250040Z AUTO 13007KT 9999 OVC007 05/05 Q////=
ILQN 250040Z AUTO 13010KT 9999 -RA OVC012 04/03 Q0991=
ILQO 250040Z AUTO 12008KT 9999 -SHRA FEW011 BKN040 BKN049 07/05 Q0996=
ILQP 250040Z AUTO 14011KT 9999 DZ ////// 07/06 Q0993=
ILQQ 250040Z AUTO 15006KT 9999 DZ BKN008 BKN034 08/07 Q0993=
ILQR 250040Z AUTO 10005KT CAVOK 07/06 Q0994=
ILQS 250040Z AUTO 13005KT 9999 FEW005 BKN047 06/06 Q0996=
ILQT 250040Z AUTO 13012KT 9999 SCT015 OVC053 05/03 Q0993=
ILQU 250040Z AUTO 15004KT 9999 FEW014 05/04 Q0997=
ILQV 250040Z AUTO 16006KT 9999 FEW006 BKN008 OVC010 06/05 Q0996=
ILQX 250040Z AUTO 14005KT 9999 -RA FEW019 BKN031 07/07 Q0994=
ILQY 250040Z AUTO 15009KT 9999 -SHRA OVC020 06/05 Q0995=
ILRO 250040Z AUTO /////KT 9999 ////// 06/05 Q////=
ILRU 250040Z AUTO 13005KT 9999 FEW006 06/06 Q0995=
ILWA 250040Z AUTO 20007KT 8000 RA OVC007 09/09 Q0994=
ILWD 250040Z AUTO /////KT //// // OVC003 06/06 Q////=
ILWE 250040Z AUTO 14006KT 9999 OVC009 05/04 Q0995=
ILWF 250040Z AUTO 07003KT 9999 FEW006 SCT023 OVC049 06/06 Q////=
ILWG 250050Z AUTO /////KT 9999 -RA OVC003 06/06 Q0993=
ILXA 250040Z AUTO /////KT 9999 -RA OVC004 06/06 Q0993=
ILXB 250040Z AUTO 30002KT 9000 -SHRA OVC023 08/08 Q0993=
ILXC 250040Z AUTO 14004KT 2800 -SHRA OVC005 07/06 Q0996=
ILXD 250040Z AUTO /////KT 9999 OVC032 07/05 Q0997=
ILXE 250040Z AUTO 13006KT 5000 -SHRA SCT002 BKN004 05/05 Q0995=
ILXF 250040Z AUTO 23014KT 9999 OVC031 10/08 Q0993=
ILXG 250050Z AUTO 17007KT 8000 BKN007 08/08 Q0992=
ILXI 250040Z AUTO 14006KT 9999 FEW007 SCT018 BKN023 06/05 Q0998=
ILXJ 250040Z AUTO 12004KT 9999 SCT013 BKN038 06/04 Q0995=
ILXK 250040Z AUTO 11004KT 9999 FEW031 BKN044 06/05 Q0997=
ILXL 250040Z AUTO /////KT 9000 -RA BKN004 OVC041 06/05 Q0993=
ILXM 250040Z AUTO /////KT 9999 FEW014 BKN033 06/05 Q////=
ILXN 250040Z AUTO 18003KT 9000 BKN000 OVC002 //////CB 07/07 Q0992=
ILXO 250040Z AUTO 18005KT 9999 BKN003 BKN005 OVC008 07/06 Q0992=
ILXP 250040Z AUTO 22007KT 9999 FEW022 BKN030 BKN040 09/07 Q0992=
ILXQ 250050Z AUTO /////KT 9000 -RA OVC004 08/08 Q////=
ILXR 250040Z AUTO 15002KT 9999 FEW034 SCT039 OVC047 05/04 Q0996=
ILXS 250040Z AUTO 15007KT 9999 BKN018 BKN047 06/04 Q0996=
ILXT 250040Z AUTO 16008KT 9999 -RA OVC006 07/07 Q0991=
ILXU 250040Z AUTO /////KT 9999 OVC025 07/06 Q0997=
ILXV 250040Z AUTO 15005KT 9999 -RA OVC005 07/06 Q0994=
ILXW 250040Z AUTO 15005KT 9999 -RA OVC006 06/06 Q0994=
ILXX 250040Z AUTO 16003KT 9999 OVC003 07/07 Q0992=
ILXY 250040Z AUTO 14006KT 9999 -RA FEW011 BKN014 OVC020 07/05 Q0995=
ILXZ 250040Z AUTO 13007KT 3800 -SHRA FEW001 SCT004 BKN006 07/06 Q////=
ILYL 250040Z AUTO 15007KT 9999 -RA FEW021 SCT040 BKN047 06/06 Q0993=
ILZA 250040Z AUTO 28010KT 9999 -SHRA FEW006 OVC027 09/08 Q0994=
ILZB 250040Z AUTO 27005KT 9999 OVC010 09/09 Q0993=
ILZC 250040Z AUTO /////KT 7000 RA OVC003 07/07 Q0995=
ILZD 250040Z AUTO 25005KT 9999 -RA FEW044 BKN063 08/08 Q0994=
ILZE 250040Z AUTO 29004KT 9999 -RA FEW030 BKN060 BKN075 08/08 Q0994=
ILZF 250040Z AUTO 23002KT 2300 -RA OVC003 08/07 Q0994=
ILZG 250040Z AUTO /////KT 7000 -DZ OVC002 07/07 Q0994=
ILZH 250040Z AUTO /////KT 3000 +DZ SCT004 OVC012 07/07 Q0993=
ILZI 250040Z AUTO 24008KT 9000 FEW011 SCT017 BKN020 09/09 Q0993=
ILZJ 250040Z AUTO 22005KT 7000 -SHRA SCT002 BKN004 OVC023 07/07 Q0993=
ILZK 250040Z AUTO 22007KT 9999 FEW003 SCT006 BKN008 09/09 Q0993=
ILZL 250040Z AUTO 16004KT 9999 -RA FEW002 SCT006 BKN009 07/07 Q0993=
ILZM 250040Z AUTO /////KT 6000 DZ OVC005 08/08 Q0994=
ILZO 250050Z AUTO 21009KT 9999 -RA OVC008 10/09 Q0995=
ILZP 250040Z AUTO 21002KT 9999 UP OVC019 08/07 Q0993=
ILZQ 250040Z AUTO 00000KT 8000 -RA OVC003 //////CB 07/07 Q0994=
ILZR 250040Z AUTO 24004KT 9999 FEW035 BKN058 08/08 Q0994=
ILZS 250040Z AUTO 32006KT 9999 OVC043 09/08 Q0994=
ILZT 250040Z AUTO 27009KT 9999 -RA FEW013 BKN026 OVC033 09/09 Q0994=
ILZU 250040Z AUTO 23011KT 9999 OVC005 10/09 Q0994=
ILZW 250040Z AUTO 23008KT 8000 -RA OVC006 09/09 Q0994=
ILZX 250040Z AUTO 27004KT 9999 -RA FEW008 BKN019 BKN068 08/08 Q0994=
ILZY 250040Z AUTO 28015KT 9999 BKN009 11/09 Q0993=
ILZZ 250040Z AUTO /////KT 9000 -RA OVC003 07/07 Q0994=